Flight Track Log - Related Links

Times and Time Zones

All times are in EDT time to prevent confusion due to time zone crossing. See the DAL3678 flight status page for this flight to view local times or setup timezone preferences in your user account.

Time Position Orientation Groundspeed Altitude Reporting Facility
EDT Latitude Longitude Course Direction KTS MPH feet Rate Location/Type
Fri 07:13:57 PM 39.8667 -75.2833 270° West 176 203 800  Level Philadelphia TRACON
Fri 07:16:19 PM 39.8511 -75.4678 264° West 236 272 5,300 2,080 Climbing New York Center
Fri 07:17:00 PM 39.9124 -75.6921 258° West  Level FlightAware Approximate
Fri 07:17:16 PM 39.8561 -75.5544 274° West 255 293 7,700  Level New York Center
Fri 07:18:00 PM 39.9000 -75.8103 270° West  Level FlightAware Approximate
Fri 07:18:17 PM 39.8642 -75.6606 276° West 261 300 10,200  Level New York Center
Fri 07:19:00 PM 39.9000 -75.9301 270° West  Level FlightAware Approximate
Fri 07:19:17 PM 39.8728 -75.7558 277° West 289 333 11,200  Level New York Center
Fri 07:20:18 PM 39.8836 -75.8892 276° West 331 381 12,300 1,426 Climbing New York Center
Fri 07:21:19 PM 39.8953 -76.0039 278° West 348 400 14,100 1,785 Climbing New York Center
Fri 07:22:19 PM 39.9058 -76.1425 276° West 353 406 15,900 1,780 Climbing New York Center
Fri 07:23:17 PM 39.9192 -76.2547 279° West 353 406 17,600 1,424 Climbing New York Center
Fri 07:24:17 PM 39.9400 -76.3917 281° West 353 406 18,700 1,190 Climbing New York Center
Fri 07:25:18 PM 39.9531 -76.5067 278° West 358 412 20,000 1,438 Climbing New York Center
Fri 07:26:18 PM 39.9697 -76.6353 280° West 358 412 21,600 1,462 Climbing New York Center
Fri 07:27:17 PM 39.9847 -76.7558 279° West 353 406 22,900 1,160 Climbing New York Center
Fri 07:28:17 PM 39.9783 -76.8797 266° West 348 400 23,900 885 Climbing New York Center
Fri 07:29:19 PM 39.9886 -77.0028 276° West 348 400 24,700 793 Climbing New York Center
Fri 07:30:18 PM 39.9983 -77.1311 276° West 354 407 25,500 857 Climbing New York Center
Fri 07:31:18 PM 40.0081 -77.2592 276° West 354 407 26,400 958 Climbing New York Center
Fri 07:32:17 PM 40.0217 -77.3881 278° West 354 407 27,400 783 Climbing New York Center
Fri 07:34:22 PM 40.0444 -77.6678 276° West 347 399 28,800 616 Climbing Cleveland Center
Fri 07:35:22 PM 40.0539 -77.7947 276° West 352 405 29,300 500 Climbing Cleveland Center
Fri 07:36:22 PM 40.0633 -77.9247 275° West 357 411 29,800 350 Climbing Cleveland Center
Fri 07:37:22 PM 40.0706 -78.0600 274° West 364 419 30,000 100 Climbing Cleveland Center
Fri 07:38:22 PM 40.0797 -78.1953 275° West 369 425 30,000  Level Cleveland Center
Fri 07:39:22 PM 40.0908 -78.3386 276° West 380 437 30,000  Level Cleveland Center
Fri 07:40:22 PM 40.0978 -78.4825 274° West 394 453 30,000  Level Cleveland Center
Fri 07:41:22 PM 40.1086 -78.6258 276° West 401 461 30,000  Level Cleveland Center
Fri 07:42:22 PM 40.1194 -78.7694 276° West 406 467 30,000  Level Cleveland Center
Fri 07:43:22 PM 40.1364 -78.9156 279° West 406 467 30,000  Level Cleveland Center
Fri 07:44:22 PM 40.1778 -79.0586 291° West 412 474 30,000  Level Cleveland Center
Fri 07:45:22 PM 40.2236 -79.2017 293° West 418 481 30,000  Level Cleveland Center
Fri 07:46:22 PM 40.2689 -79.3422 293° West 424 488 30,000  Level Cleveland Center
Fri 07:47:22 PM 40.3119 -79.4858 292° West 431 496 30,000  Level Cleveland Center
Fri 07:48:22 PM 40.3531 -79.6322 290° West 431 496 30,000  Level Cleveland Center
Fri 07:49:22 PM 40.3978 -79.7761 292° West 431 496 30,000  Level Cleveland Center
Fri 07:50:22 PM 40.4383 -79.9203 290° West 431 496 30,000  Level Cleveland Center
Fri 07:51:22 PM 40.4789 -80.0700 290° West 431 496 30,000  Level Cleveland Center
Fri 07:52:22 PM 40.5231 -80.2169 292° West 426 490 30,000  Level Cleveland Center
Fri 07:53:22 PM 40.5547 -80.3344 290° West 426 490 30,000  Level Cleveland Center
Fri 07:54:22 PM 40.6069 -80.5119 291° West 431 496 30,000  Level Cleveland Center
Fri 07:55:22 PM 40.6508 -80.6569 292° West 431 496 30,000  Level Cleveland Center
Fri 07:56:22 PM 40.7006 -80.7886 297° West 431 496 30,000  Level Cleveland Center
Fri 07:57:22 PM 40.7650 -80.9231 302° West 436 502 30,000  Level Cleveland Center
Fri 07:58:22 PM 40.8292 -81.0633 301° West 443 510 30,000  Level Cleveland Center
Fri 07:59:22 PM 40.8992 -81.2067 303° West 450 518 30,000 -250 Level Cleveland Center
Fri 08:00:22 PM 40.9672 -81.3447 303° West 450 518 29,500 -850 Descending Cleveland Center
Fri 08:01:22 PM 41.0372 -81.4861 303° West 455 524 28,300 -1,500 Descending Cleveland Center
Fri 08:02:22 PM 41.1025 -81.6275 302° West 455 524 26,500 -1,700 Descending Cleveland Center
Fri 08:03:22 PM 41.1700 -81.7611 304° West 450 518 24,900 -1,250 Descending Cleveland Center
Fri 08:04:22 PM 41.2375 -81.8947 304° West 444 511 24,000 -450 Descending Cleveland Center
Fri 08:05:22 PM 41.2983 -82.0258 302° West 432 497 24,000 -550 Level Cleveland Center
Fri 08:06:22 PM 41.3633 -82.1683 301° West 426 490 22,900 -1,500 Descending Cleveland Center
Fri 08:07:22 PM 41.4303 -82.2836 308° West 426 490 21,000 -2,050 Descending Cleveland Center
Fri 08:08:22 PM 41.5014 -82.4019 309° West 426 490 18,800 -2,300 Descending Cleveland Center
Fri 08:09:22 PM 41.5725 -82.5206 309° West 414 476 16,400 -2,300 Descending Cleveland Center
Fri 08:10:22 PM 41.6394 -82.6336 308° West 395 455 14,200 -2,416 Descending Cleveland Center
Fri 08:10:39 PM 41.6656 -82.6761 309° West 374 430 13,300 -2,000 Descending Cleveland Center
Fri 08:11:22 PM 41.7019 -82.7414 307° West 370 426 12,200 -796 Descending Cleveland Center
Fri 08:12:17 PM 41.7631 -82.8158 318° Northwest 282 325 12,000 -1,034 Descending Cleveland Center
Fri 08:13:18 PM 41.8286 -82.8739 327° Northwest 279 321 10,200 -1,475 Descending Cleveland Center
Fri 08:14:19 PM 41.8753 -82.9425 312° West 255 293 9,000 -787 Descending Cleveland Center
Fri 08:15:20 PM 41.8919 -83.0433 283° West 270 311 8,600 -1,268 Descending Cleveland Center
Fri 08:16:22 PM 41.9086 -83.1389 283° West 261 300 6,400 -1,333 Descending Cleveland Center
Fri 08:17:17 PM 41.9086 -83.2256 270° West 253 291 6,000 -500 Descending Cleveland Center
Fri 08:18:22 PM 41.9000 -83.3228 263° West 257 296 5,400 -912 Descending Cleveland Center
Fri 08:19:22 PM 41.8939 -83.4033 264° West 252 290 4,100 -712 Descending Cleveland Center
Fri 08:20:20 PM 41.8872 -83.5036 265° West 241 277 4,000 -50 Descending Cleveland Center
Fri 08:21:21 PM 41.9258 -83.5500 318° Northwest 227 261 4,000  Level Cleveland Center
Fri 08:22:22 PM 41.9831 -83.5081 29° Northeast 226 260 4,000  Level Cleveland Center

Login

Don't have an account? Register now (free) for customized features, flight alerts, and more!